Time;durP1;ratioP1;P1;durP2;ratioP2;P2;SDS_P1;SDS_P2;PMS_P1;PMS_P2;Temp;Humidity;BMP_temperature;BMP_pressure;BME280_temperature;BME280_humidity;BME280_pressure;Samples;Min_cycle;Max_cycle;Signal;HPM_P1;HPM_P2
2021/11/30 00:02:22;;;;;;;4.63;4.23;;;3.60;1.00;;;;;;6284839;22;20142;-87
2021/11/30 00:04:47;;;;;;;6.73;5.27;;;5.90;1.00;;;;;;6256315;22;20222;-87
2021/11/30 00:07:13;;;;;;;4.93;4.53;;;3.70;1.00;;;;;;6256859;22;21008;-86
2021/11/30 00:12:05;;;;;;;7.07;5.13;;;3.70;1.00;;;;;;6284740;22;20204;-86
2021/11/30 00:14:31;;;;;;;8.07;5.33;;;3.70;1.00;;;;;;6283496;22;20161;-86
2021/11/30 00:16:57;;;;;;;4.27;3.87;;;3.70;1.00;;;;;;6256615;22;20162;-86
2021/11/30 00:19:24;;;;;;;6.43;4.50;;;3.70;1.00;;;;;;6258302;22;20732;-86
2021/11/30 00:21:50;;;;;;;4.67;4.27;;;3.70;1.00;;;;;;6256796;22;20162;-85
2021/11/30 00:24:16;;;;;;;5.53;4.53;;;3.70;1.00;;;;;;6256007;22;20856;-86
2021/11/30 00:26:42;;;;;;;4.47;4.07;;;;;;;;;;6256894;22;20167;-85
2021/11/30 00:29:08;;;;;;;4.50;4.03;;;;;;;;;;6281747;22;20188;-86
2021/11/30 00:31:34;;;;;;;5.13;4.13;;;;;;;;;;6284048;22;20194;-86
2021/11/30 00:34:00;;;;;;;5.23;4.67;;;;;;;;;;6284981;22;20185;-86
2021/11/30 00:36:26;;;;;;;3.60;3.30;;;;;;;;;;6281818;22;20641;-86
2021/11/30 00:38:52;;;;;;;4.60;4.20;;;3.70;1.00;;;;;;6285872;22;20172;-86
2021/11/30 00:41:18;;;;;;;5.50;3.77;;;;;;;;;;6284856;22;20256;-86
2021/11/30 00:43:43;;;;;;;4.40;4.00;;;3.80;1.00;;;;;;6282518;22;20166;-86
2021/11/30 00:46:18;;;;;;;4.43;3.50;;;;;;;;;;6282304;22;20149;-85
2021/11/30 00:48:44;;;;;;;3.33;3.03;;;;;;;;;;6283651;22;20153;-86
2021/11/30 00:51:20;;;;;;;4.30;3.90;;;3.80;1.00;;;;;;6284709;22;20227;-86
2021/11/30 00:53:47;;;;;;;6.40;4.17;;;3.80;1.00;;;;;;6283800;22;20243;-86
2021/11/30 00:56:14;;;;;;;4.73;3.30;;;3.80;1.00;;;;;;6285587;22;20158;-85
2021/11/30 00:58:41;;;;;;;5.73;3.53;;;3.90;1.00;;;;;;6284161;22;20159;-85
2021/11/30 01:01:07;;;;;;;3.43;3.17;;;;;;;;;;6284859;22;20203;-85
2021/11/30 01:03:34;;;;;;;3.93;3.47;;;;;;;;;;6284884;22;20247;-85
2021/11/30 01:05:59;;;;;;;3.63;3.20;;;3.90;1.00;;;;;;6284666;22;20257;-84
2021/11/30 01:08:25;;;;;;;3.80;3.50;;;3.90;1.00;;;;;;6283562;22;20161;-85
2021/11/30 01:10:51;;;;;;;4.30;3.90;;;3.90;1.00;;;;;;6284371;22;20186;-86
2021/11/30 01:13:18;;;;;;;4.90;3.67;;;3.90;1.00;;;;;;6284305;22;20184;-85
2021/11/30 01:15:44;;;;;;;4.83;3.33;;;4.00;1.00;;;;;;6282593;22;20175;-85
2021/11/30 01:18:10;;;;;;;4.67;3.33;;;;;;;;;;6282793;22;20161;-86
2021/11/30 01:20:36;;;;;;;3.60;3.30;;;4.00;1.00;;;;;;6283509;22;20157;-86
2021/11/30 01:23:03;;;;;;;3.57;3.23;;;4.00;1.00;;;;;;6284920;22;20166;-86
2021/11/30 01:25:29;;;;;;;4.17;3.47;;;4.00;1.00;;;;;;6285783;22;20165;-86
2021/11/30 01:27:55;;;;;;;3.50;3.30;;;;;;;;;;6282294;22;20165;-86
2021/11/30 01:30:22;;;;;;;3.60;3.30;;;4.00;1.00;;;;;;6284088;22;20169;-86
2021/11/30 01:32:48;;;;;;;3.63;3.20;;;;;;;;;;6283409;22;20165;-86
2021/11/30 01:35:16;;;;;;;3.27;2.97;;;4.00;1.00;;;;;;6281763;22;20166;-86
2021/11/30 01:37:43;;;;;;;5.70;2.90;;;4.00;1.00;;;;;;6283665;22;20147;-86
2021/11/30 01:40:10;;;;;;;3.20;3.00;;;4.10;1.00;;;;;;6281618;22;20189;-86
2021/11/30 01:42:44;;;;;;;3.40;3.10;;;;;;;;;;6281446;22;20169;-85
2021/11/30 01:45:11;;;;;;;8.03;2.90;;;;;;;;;;6283620;22;20181;-86
2021/11/30 01:48:10;;;;;;;1.80;1.67;;;;;;;;;;6281925;22;20189;-86
2021/11/30 01:50:39;;;;;;;2.00;1.90;;;4.30;1.00;;;;;;6283948;22;20188;-86
2021/11/30 01:53:05;;;;;;;2.53;2.30;;;4.30;1.00;;;;;;6283016;22;20161;-85
2021/11/30 01:55:32;;;;;;;2.93;2.73;;;4.30;1.00;;;;;;6280795;22;20201;-86
2021/11/30 01:57:58;;;;;;;4.50;2.80;;;4.40;1.00;;;;;;6283511;22;20225;-85
2021/11/30 02:00:26;;;;;;;3.70;2.30;;;4.40;1.00;;;;;;6281109;22;20179;-86
2021/11/30 02:02:52;;;;;;;4.43;3.10;;;4.40;1.00;;;;;;6285084;22;20531;-86
2021/11/30 02:05:18;;;;;;;2.10;2.00;;;4.80;1.00;;;;;;6282268;22;20202;-86
2021/11/30 02:07:44;;;;;;;2.00;1.90;;;4.40;1.00;;;;;;6283479;22;20150;-85
2021/11/30 02:10:13;;;;;;;2.40;2.20;;;4.40;1.00;;;;;;6284961;22;20551;-85
2021/11/30 02:12:39;;;;;;;2.57;2.00;;;;;;;;;;6285788;22;20185;-85
2021/11/30 02:15:08;;;;;;;1.93;1.73;;;4.40;1.00;;;;;;6281813;22;20159;-85
2021/11/30 02:17:35;;;;;;;2.50;2.30;;;4.40;1.00;;;;;;6282610;22;20181;-85
2021/11/30 02:20:01;;;;;;;2.37;2.17;;;4.30;1.00;;;;;;6284744;22;20154;-85
2021/11/30 02:22:28;;;;;;;2.63;2.43;;;;;;;;;;6283553;22;20678;-85
2021/11/30 02:24:54;;;;;;;6.27;3.00;;;;;;;;;;6281565;22;20174;-84
2021/11/30 02:27:21;;;;;;;2.37;2.20;;;4.30;1.00;;;;;;6285079;22;20197;-85
2021/11/30 02:29:47;;;;;;;2.57;2.33;;;;;;;;;;6284162;22;20164;-85
2021/11/30 02:32:13;;;;;;;2.63;1.67;;;4.20;1.00;;;;;;6285325;22;20181;-85
2021/11/30 02:34:40;;;;;;;4.50;2.30;;;5.30;1.00;;;;;;6284197;22;20168;-85
2021/11/30 02:37:07;;;;;;;2.10;1.90;;;4.30;1.00;;;;;;6283331;22;20548;-85
2021/11/30 02:39:34;;;;;;;3.40;2.27;;;4.20;1.00;;;;;;6283196;22;20157;-85
2021/11/30 02:42:03;;;;;;;3.63;1.33;;;4.20;1.00;;;;;;6283070;22;20171;-85
2021/11/30 02:44:29;;;;;;;3.03;2.50;;;4.20;1.00;;;;;;6282367;22;20166;-85
2021/11/30 02:47:05;;;;;;;2.33;2.13;;;4.10;1.00;;;;;;6282644;22;20169;-85
2021/11/30 02:49:34;;;;;;;3.37;1.83;;;4.20;1.00;;;;;;6281839;22;20252;-85
2021/11/30 02:52:08;;;;;;;1.37;1.30;;;4.10;1.00;;;;;;6284370;22;20192;-86
2021/11/30 02:54:36;;;;;;;2.20;2.00;;;4.10;1.00;;;;;;6281978;22;20152;-86
2021/11/30 02:57:05;;;;;;;2.23;1.23;;;4.10;1.00;;;;;;6282088;22;20161;-86
2021/11/30 02:59:33;;;;;;;0.87;0.87;;;4.10;1.00;;;;;;6284438;22;20164;-86
2021/11/30 03:02:13;;;;;;;2.33;1.67;;;4.10;1.00;;;;;;6285670;22;20263;-86
2021/11/30 03:04:40;;;;;;;3.27;1.80;;;4.00;1.00;;;;;;6282659;22;20150;-85
2021/11/30 03:07:13;;;;;;;1.70;1.60;;;4.00;1.00;;;;;;6279840;22;20183;-86
2021/11/30 03:09:39;;;;;;;2.03;1.67;;;;;;;;;;6281791;22;20145;-86
2021/11/30 03:12:05;;;;;;;2.00;1.77;;;3.80;1.00;;;;;;6281978;22;20255;-86
2021/11/30 03:14:31;;;;;;;1.83;1.73;;;3.90;1.00;;;;;;6283646;22;20164;-86
2021/11/30 03:16:58;;;;;;;2.03;1.90;;;3.90;1.00;;;;;;6281163;22;20713;-86
2021/11/30 03:19:25;;;;;;;2.33;2.13;;;3.90;1.00;;;;;;6281825;22;20163;-86
2021/11/30 03:21:51;;;;;;;2.33;1.57;;;;;;;;;;6283332;22;20168;-86
2021/11/30 03:24:17;;;;;;;2.63;2.43;;;;;;;;;;6283740;22;20170;-86
2021/11/30 03:26:43;;;;;;;1.70;1.60;;;3.90;1.00;;;;;;6281593;22;20161;-86
2021/11/30 03:29:09;;;;;;;3.10;2.00;;;3.80;1.00;;;;;;6281931;22;20161;-86
2021/11/30 03:33:59;;;;;;;1.40;1.30;;;;;;;;;;6284011;22;20193;-86
2021/11/30 03:34:22;;;;;;;1.53;1.20;;;3.80;1.00;;;;;;6268930;22;20618;-86
2021/11/30 03:36:50;;;;;;;1.63;1.53;;;3.80;1.00;;;;;;6283489;22;20224;-86
2021/11/30 03:39:22;;;;;;;4.03;1.80;;;3.80;1.00;;;;;;6284725;22;20165;-86
2021/11/30 03:41:51;;;;;;;2.10;2.00;;;3.80;1.00;;;;;;6286451;22;20168;-85
2021/11/30 03:44:17;;;;;;;1.47;1.37;;;4.90;1.00;;;;;;6284062;22;20169;-85
2021/11/30 03:46:44;;;;;;;3.47;2.13;;;6.00;1.00;;;;;;6283486;22;20165;-85
2021/11/30 03:49:12;;;;;;;2.50;1.80;;;3.70;1.00;;;;;;6281530;22;20178;-85
2021/11/30 03:51:38;;;;;;;1.90;1.67;;;3.80;1.00;;;;;;6282116;22;20189;-85
2021/11/30 03:54:05;;;;;;;3.37;2.10;;;3.80;1.00;;;;;;6283527;22;20173;-85
2021/11/30 03:56:32;;;;;;;2.10;1.97;;;3.70;1.00;;;;;;6282394;22;20153;-86
2021/11/30 03:58:58;;;;;;;2.93;2.63;;;;;;;;;;6282763;22;20626;-86
2021/11/30 04:01:24;;;;;;;3.83;1.47;;;3.80;1.00;;;;;;6282218;22;20164;-86
2021/11/30 04:03:51;;;;;;;2.07;1.43;;;;;;;;;;6283908;22;20238;-85
2021/11/30 04:06:16;;;;;;;2.40;2.20;;;3.70;1.00;;;;;;6282360;22;20181;-86
2021/11/30 04:08:42;;;;;;;2.53;2.33;;;;;;;;;;6282890;22;20173;-86
2021/11/30 04:11:09;;;;;;;2.27;2.00;;;3.70;1.00;;;;;;6283305;22;20180;-85
2021/11/30 04:13:36;;;;;;;5.57;2.40;;;;;;;;;;6282212;22;20185;-86
2021/11/30 04:16:02;;;;;;;2.80;2.10;;;3.60;1.00;;;;;;6286970;22;20150;-86
2021/11/30 04:18:29;;;;;;;2.10;2.00;;;;;;;;;;6283653;22;20176;-86
2021/11/30 04:20:54;;;;;;;3.37;2.50;;;3.60;1.00;;;;;;6285199;22;20593;-86
2021/11/30 04:23:21;;;;;;;3.70;2.33;;;;;;;;;;6284679;22;20165;-86
2021/11/30 04:25:46;;;;;;;3.23;2.10;;;3.50;1.00;;;;;;6285027;22;20161;-86
2021/11/30 04:28:12;;;;;;;3.10;2.27;;;3.50;1.00;;;;;;6282992;22;20168;-86
2021/11/30 04:30:38;;;;;;;2.37;2.17;;;;;;;;;;6283703;22;20177;-86
2021/11/30 04:33:04;;;;;;;2.93;2.60;;;;;;;;;;6284747;22;20165;-86
2021/11/30 04:35:31;;;;;;;1.67;1.57;;;;;;;;;;6284405;22;20903;-86
2021/11/30 04:37:57;;;;;;;2.73;2.40;;;;;;;;;;6284438;22;20157;-86
2021/11/30 04:40:23;;;;;;;2.30;2.07;;;;;;;;;;6286979;22;20154;-86
2021/11/30 04:42:49;;;;;;;2.60;2.40;;;3.40;1.00;;;;;;6285526;22;20244;-86
2021/11/30 04:45:27;;;;;;;2.83;2.63;;;3.40;1.00;;;;;;6286520;22;20157;-86
2021/11/30 04:47:55;;;;;;;2.87;2.57;;;3.30;1.00;;;;;;6285433;22;20160;-85
2021/11/30 04:50:25;;;;;;;2.93;2.70;;;3.30;1.00;;;;;;6281918;22;20812;-85
2021/11/30 04:52:52;;;;;;;2.03;1.87;;;;;;;;;;6282549;22;20130;-85
2021/11/30 04:55:26;;;;;;;4.10;2.77;;;3.10;1.00;;;;;;6284284;22;20517;-85
2021/11/30 04:58:04;;;;;;;4.83;3.10;;;3.10;1.00;;;;;;6282325;22;20157;-86
2021/11/30 05:00:31;;;;;;;3.60;3.00;;;3.00;1.00;;;;;;6283683;22;20157;-86
2021/11/30 05:02:57;;;;;;;6.77;2.43;;;3.00;1.00;;;;;;6283908;22;20157;-85
2021/11/30 05:05:23;;;;;;;3.97;3.50;;;3.00;1.00;;;;;;6283822;22;20231;-86
2021/11/30 05:07:49;;;;;;;3.90;3.60;;;;;;;;;;6286599;22;20512;-86
2021/11/30 05:10:17;;;;;;;5.80;4.40;;;3.00;1.00;;;;;;6284061;22;20150;-86
2021/11/30 05:12:44;;;;;;;5.20;3.67;;;;;;;;;;6284826;22;20590;-86
2021/11/30 05:15:10;;;;;;;3.50;3.23;;;3.10;1.00;;;;;;6284652;22;20172;-86
2021/11/30 05:17:36;;;;;;;3.70;2.97;;;;;;;;;;6284174;22;20497;-87
2021/11/30 05:20:04;;;;;;;3.97;3.23;;;3.10;1.00;;;;;;6285587;22;20164;-86
2021/11/30 05:22:31;;;;;;;17.63;5.87;;;;;;;;;;6288546;22;20141;-85
2021/11/30 05:24:57;;;;;;;3.57;3.23;;;;;;;;;;6285805;22;20206;-86
2021/11/30 05:27:23;;;;;;;15.67;5.17;;;;;;;;;;6284620;22;20498;-86
2021/11/30 05:29:49;;;;;;;4.30;3.10;;;3.10;1.00;;;;;;6285211;22;20164;-86
2021/11/30 05:32:15;;;;;;;6.47;4.07;;;;;;;;;;6285222;22;20274;-86
2021/11/30 05:34:40;;;;;;;5.03;4.43;;;3.10;1.00;;;;;;6283925;22;20568;-86
2021/11/30 05:37:06;;;;;;;3.33;3.03;;;;;;;;;;6283096;22;20162;-86
2021/11/30 05:39:32;;;;;;;3.47;3.17;;;3.10;1.00;;;;;;6283045;22;20207;-86
2021/11/30 05:41:57;;;;;;;6.77;4.20;;;3.00;1.00;;;;;;6283598;22;20154;-86
2021/11/30 05:44:23;;;;;;;27.73;8.70;;;3.00;1.00;;;;;;6283316;22;20601;-86
2021/11/30 05:46:49;;;;;;;35.07;8.80;;;3.00;1.00;;;;;;6283836;22;20166;-85
2021/11/30 05:49:16;;;;;;;3.63;1.77;;;3.00;1.00;;;;;;6281930;22;20166;-86
2021/11/30 05:51:42;;;;;;;5.23;4.23;;;2.90;1.00;;;;;;6283115;22;20192;-85
2021/11/30 05:54:08;;;;;;;4.10;3.70;;;;;;;;;;6282456;22;20161;-85
2021/11/30 05:56:34;;;;;;;5.03;4.63;;;2.90;1.00;;;;;;6284064;22;20157;-84
2021/11/30 05:59:00;;;;;;;7.23;6.73;;;;;;;;;;6281047;22;20628;-85
2021/11/30 06:01:28;;;;;;;44.47;10.23;;;;;;;;;;6284163;22;20167;-84
2021/11/30 06:03:58;;;;;;;4.83;4.43;;;;;;;;;;6281207;22;20619;-84
2021/11/30 06:06:30;;;;;;;272.30;54.73;;;2.80;1.00;;;;;;6281878;22;20173;-85
2021/11/30 06:08:56;;;;;;;4.60;4.20;;;2.70;1.00;;;;;;6285590;22;20181;-85
2021/11/30 06:11:23;;;;;;;76.97;18.57;;;;;;;;;;6285038;22;20189;-84
2021/11/30 06:13:49;;;;;;;11.13;10.37;;;2.70;1.00;;;;;;6286226;22;20156;-85
2021/11/30 06:16:15;;;;;;;4.63;3.93;;;;;;;;;;6282329;22;20165;-84
2021/11/30 06:18:41;;;;;;;2.37;2.17;;;;;;;;;;6284830;22;20175;-84
2021/11/30 06:21:07;;;;;;;41.60;22.43;;;2.70;1.00;;;;;;6283997;22;20161;-84
2021/11/30 06:23:33;;;;;;;6.03;4.37;;;;;;;;;;6285370;22;20666;-84
2021/11/30 06:25:59;;;;;;;188.97;20.90;;;;;;;;;;6285135;22;20172;-83
2021/11/30 06:28:25;;;;;;;4.60;3.67;;;2.60;1.00;;;;;;6284081;22;20165;-82
2021/11/30 06:30:52;;;;;;;3.37;3.07;;;2.50;1.00;;;;;;6285730;22;20208;-82
2021/11/30 06:33:18;;;;;;;2.93;2.73;;;;;;;;;;6285897;22;20165;-82
2021/11/30 06:35:44;;;;;;;311.20;54.57;;;;;;;;;;6284332;22;20182;-82
2021/11/30 06:38:10;;;;;;;6.40;5.90;;;;;;;;;;6285107;22;20157;-81
2021/11/30 06:40:36;;;;;;;5.60;5.10;;;2.60;1.00;;;;;;6285068;22;20161;-81
2021/11/30 06:43:02;;;;;;;2.90;2.60;;;;;;;;;;6286137;22;20186;-82
2021/11/30 06:45:27;;;;;;;3.87;2.93;;;2.60;1.00;;;;;;6284642;22;20161;-82
2021/11/30 06:47:53;;;;;;;17.53;9.87;;;;;;;;;;6286460;22;20166;-82
2021/11/30 06:50:20;;;;;;;4.87;4.47;;;;;;;;;;6281739;22;20165;-77
2021/11/30 06:52:48;;;;;;;193.33;48.27;;;2.60;1.00;;;;;;6274428;22;20161;-78
2021/11/30 06:55:14;;;;;;;4.20;3.80;;;;;;;;;;6269369;22;20165;-76
2021/11/30 06:57:41;;;;;;;2.47;2.27;;;;;;;;;;6271527;22;20788;-76
2021/11/30 07:00:10;;;;;;;26.90;10.30;;;2.60;1.00;;;;;;6267888;22;20221;-75
2021/11/30 07:02:36;;;;;;;4.50;4.10;;;2.70;1.00;;;;;;6262407;22;20529;-76
2021/11/30 07:05:48;;;;;;;765.53;133.60;;;2.90;1.00;;;;;;6267092;22;20161;-76
2021/11/30 07:08:00;;;;;;;3.33;3.03;;;2.60;1.00;;;;;;6267309;22;20177;-76
2021/11/30 07:13:20;;;;;;;2.73;2.53;;;2.60;1.00;;;;;;6268124;22;20211;-75
2021/11/30 07:15:49;;;;;;;3.83;3.53;;;2.60;1.00;;;;;;6273414;22;20484;-75
2021/11/30 07:18:15;;;;;;;17.37;14.33;;;2.60;1.00;;;;;;6271735;22;20153;-76
2021/11/30 07:20:43;;;;;;;4.30;3.90;;;2.60;1.00;;;;;;6272290;22;20222;-75
2021/11/30 07:23:09;;;;;;;4.73;4.30;;;2.60;1.00;;;;;;6271613;22;20226;-76
2021/11/30 07:25:35;;;;;;;2.70;2.50;;;2.60;1.00;;;;;;6273167;22;20164;-75
2021/11/30 07:28:00;;;;;;;194.13;80.77;;;2.60;1.00;;;;;;6271942;22;20619;-75
2021/11/30 07:30:26;;;;;;;23.70;14.33;;;2.60;1.00;;;;;;6273437;22;20245;-79
2021/11/30 07:32:52;;;;;;;3.93;3.63;;;2.60;1.00;;;;;;6277630;22;20162;-78
2021/11/30 07:35:22;;;;;;;202.93;30.43;;;2.60;1.00;;;;;;6277465;22;20185;-79
2021/11/30 07:37:48;;;;;;;4.47;4.13;;;2.60;1.00;;;;;;6277922;22;20239;-78
2021/11/30 07:40:15;;;;;;;4.50;4.20;;;2.70;1.00;;;;;;6272490;22;20499;-77
2021/11/30 07:42:43;;;;;;;167.07;20.43;;;2.70;1.00;;;;;;6271964;22;20165;-78
2021/11/30 07:45:09;;;;;;;203.77;44.27;;;2.70;1.00;;;;;;6275376;22;20157;-78
2021/11/30 07:47:35;;;;;;;4.57;4.17;;;2.70;1.00;;;;;;6272259;22;20161;-78
2021/11/30 07:50:01;;;;;;;4.37;4.07;;;2.70;1.00;;;;;;6266740;22;20184;-76
2021/11/30 07:52:26;;;;;;;3.47;3.20;;;2.70;1.00;;;;;;6266203;22;20245;-75
2021/11/30 07:54:52;;;;;;;2.73;2.53;;;2.70;1.00;;;;;;6263976;22;20222;-75
2021/11/30 07:57:18;;;;;;;156.33;33.77;;;2.70;1.00;;;;;;6270666;22;20518;-75
2021/11/30 07:59:44;;;;;;;144.13;25.63;;;2.70;1.00;;;;;;6273119;22;20899;-76
2021/11/30 08:02:10;;;;;;;155.00;16.07;;;2.70;1.00;;;;;;6273712;22;20164;-77
2021/11/30 08:04:35;;;;;;;3.70;3.43;;;2.70;1.00;;;;;;6274332;22;20165;-79
2021/11/30 08:07:01;;;;;;;1109.23;388.10;;;2.70;1.00;;;;;;6275618;22;20181;-78
2021/11/30 08:09:27;;;;;;;121.23;116.80;;;2.70;1.00;;;;;;6276999;22;20169;-80
2021/11/30 08:11:55;;;;;;;622.83;579.27;;;2.70;1.00;;;;;;6275817;22;20196;-77
2021/11/30 08:14:21;;;;;;;1090.77;792.60;;;;;;;;;;6281152;22;20485;-79
2021/11/30 08:16:47;;;;;;;850.97;761.90;;;2.70;1.00;;;;;;6284886;22;20228;-78
2021/11/30 08:19:12;;;;;;;549.43;514.13;;;2.80;1.00;;;;;;6285230;22;20160;-79
2021/11/30 08:21:38;;;;;;;598.20;553.23;;;;;;;;;;6280334;22;20258;-79
2021/11/30 08:24:04;;;;;;;1173.30;782.73;;;2.80;1.00;;;;;;6280078;22;20720;-80
2021/11/30 08:26:31;;;;;;;631.17;598.83;;;;;;;;;;6282711;22;20172;-79
2021/11/30 08:28:56;;;;;;;212.00;198.03;;;2.80;1.00;;;;;;6283851;22;20261;-79
2021/11/30 08:31:22;;;;;;;545.40;488.50;;;;;;;;;;6282873;22;20185;-79
2021/11/30 08:33:48;;;;;;;355.10;339.33;;;2.80;1.00;;;;;;6280019;22;20166;-79
2021/11/30 08:36:14;;;;;;;561.63;516.17;;;;;;;;;;6281927;22;20162;-79
2021/11/30 08:38:40;;;;;;;711.90;634.63;;;2.90;1.00;;;;;;6283152;22;20169;-80
2021/11/30 08:41:06;;;;;;;724.83;653.23;;;2.90;1.00;;;;;;6282962;22;20704;-79
2021/11/30 08:43:32;;;;;;;73.97;71.27;;;2.90;1.00;;;;;;6281801;22;20172;-80
2021/11/30 08:45:57;;;;;;;538.47;512.33;;;2.90;1.00;;;;;;6282504;22;20166;-78
2021/11/30 08:48:24;;;;;;;968.40;776.67;;;2.90;1.00;;;;;;6282403;22;20181;-77
2021/11/30 08:50:56;;;;;;;563.80;507.17;;;3.00;1.00;;;;;;6282917;22;20505;-80
2021/11/30 08:53:23;;;;;;;538.10;492.20;;;3.00;1.00;;;;;;6279708;22;20210;-78
2021/11/30 08:55:49;;;;;;;290.20;278.03;;;3.00;1.00;;;;;;6280944;22;20158;-79
2021/11/30 08:58:15;;;;;;;333.23;310.43;;;;;;;;;;6278395;22;20188;-78
2021/11/30 09:00:41;;;;;;;326.77;311.33;;;3.00;1.00;;;;;;6276338;22;20168;-78
2021/11/30 09:03:07;;;;;;;475.97;451.20;;;3.10;1.00;;;;;;6278906;22;20168;-79
2021/11/30 09:05:33;;;;;;;443.13;419.00;;;3.10;1.00;;;;;;6283016;22;20173;-79
2021/11/30 09:07:59;;;;;;;430.67;410.43;;;;;;;;;;6279881;22;20161;-79
2021/11/30 09:10:25;;;;;;;655.73;609.30;;;3.10;1.00;;;;;;6280793;22;20255;-78
2021/11/30 09:12:52;;;;;;;1029.50;731.43;;;;;;;;;;6280344;22;20207;-81
2021/11/30 09:15:18;;;;;;;475.03;451.50;;;3.00;1.00;;;;;;6282569;22;20170;-80
2021/11/30 09:17:44;;;;;;;397.67;373.87;;;3.10;1.00;;;;;;6282581;22;20169;-79
2021/11/30 09:20:11;;;;;;;698.13;635.60;;;3.10;1.00;;;;;;6281561;22;20172;-80
2021/11/30 09:22:38;;;;;;;401.57;382.43;;;3.10;1.00;;;;;;6282981;22;20168;-79
2021/11/30 09:25:06;;;;;;;171.60;165.53;;;3.10;1.00;;;;;;6279130;22;20168;-79
2021/11/30 09:27:32;;;;;;;485.10;460.20;;;;;;;;;;6280387;22;20158;-78
2021/11/30 09:29:59;;;;;;;390.27;372.80;;;3.20;1.00;;;;;;6277764;22;20188;-78
2021/11/30 09:32:29;;;;;;;594.80;549.27;;;3.20;1.00;;;;;;6277064;22;20204;-79
2021/11/30 09:34:57;;;;;;;399.60;382.77;;;3.20;1.00;;;;;;6283349;22;20137;-79
2021/11/30 09:37:24;;;;;;;460.50;425.73;;;3.20;1.00;;;;;;6280653;22;20165;-79
2021/11/30 09:39:50;;;;;;;501.57;474.93;;;;;;;;;;6279564;22;20167;-79
2021/11/30 09:42:17;;;;;;;636.27;592.83;;;3.30;1.00;;;;;;6277349;22;20187;-79
2021/11/30 09:44:45;;;;;;;386.63;373.30;;;3.30;1.00;;;;;;6281678;22;20163;-80
2021/11/30 09:47:15;;;;;;;455.07;431.70;;;3.30;1.00;;;;;;6283584;22;20168;-81
2021/11/30 09:49:41;;;;;;;614.57;576.47;;;3.30;1.00;;;;;;6282516;22;20156;-79
2021/11/30 09:52:08;;;;;;;486.20;455.07;;;3.30;1.00;;;;;;6280626;22;20197;-80
2021/11/30 09:54:34;;;;;;;563.23;534.43;;;3.30;1.00;;;;;;6283401;22;20145;-80
2021/11/30 09:57:00;;;;;;;701.73;657.93;;;;;;;;;;6276644;22;20589;-79
2021/11/30 09:59:27;;;;;;;618.87;584.03;;;3.40;1.00;;;;;;6282309;22;20157;-80
2021/11/30 10:01:53;;;;;;;539.30;509.73;;;3.40;1.00;;;;;;6281596;22;20169;-79
2021/11/30 10:04:20;;;;;;;496.00;469.43;;;;;;;;;;6285482;22;20156;-80
2021/11/30 10:06:46;;;;;;;620.67;588.57;;;3.40;1.00;;;;;;6281723;22;20522;-80
2021/11/30 10:09:23;;;;;;;252.53;243.53;;;3.40;1.00;;;;;;6282013;22;20236;-80
2021/11/30 10:12:18;;;;;;;473.90;448.33;;;3.40;1.00;;;;;;6283499;22;20201;-80
2021/11/30 10:14:45;;;;;;;529.37;503.03;;;;;;;;;;6281796;22;20193;-80
2021/11/30 10:17:16;;;;;;;159.87;153.97;;;;;;;;;;6282995;22;20169;-80
2021/11/30 10:19:49;;;;;;;448.40;422.90;;;3.40;1.00;;;;;;6277294;22;20161;-79
2021/11/30 10:22:15;;;;;;;141.20;136.70;;;3.40;1.00;;;;;;6279849;22;20149;-81
2021/11/30 10:24:42;;;;;;;212.30;204.77;;;3.50;1.00;;;;;;6283764;22;20164;-81
2021/11/30 10:27:08;;;;;;;322.10;308.70;;;;;;;;;;6280973;22;20193;-81
2021/11/30 10:29:41;;;;;;;330.77;317.77;;;3.50;1.00;;;;;;6282220;22;20171;-80
2021/11/30 10:32:07;;;;;;;239.70;231.80;;;3.60;1.00;;;;;;6282049;22;20233;-81
2021/11/30 10:34:33;;;;;;;643.20;613.10;;;3.60;1.00;;;;;;6283879;22;20157;-81
2021/11/30 10:37:06;;;;;;;389.07;373.73;;;3.50;1.00;;;;;;6285313;22;20201;-80
2021/11/30 10:39:34;;;;;;;188.10;181.47;;;3.60;1.00;;;;;;6286732;22;20138;-80
2021/11/30 10:42:23;;;;;;;212.63;205.33;;;3.60;1.00;;;;;;6282954;22;20200;-81
2021/11/30 10:44:51;;;;;;;468.00;446.03;;;3.80;1.00;;;;;;6282784;22;20225;-81
2021/11/30 10:47:25;;;;;;;311.60;299.07;;;3.60;1.00;;;;;;6281530;22;20287;-81
2021/11/30 10:49:54;;;;;;;129.53;125.20;;;3.70;1.00;;;;;;6283123;22;20154;-80
2021/11/30 10:52:31;;;;;;;145.43;140.53;;;3.80;1.00;;;;;;6281684;22;20601;-81
2021/11/30 10:55:10;;;;;;;203.93;197.30;;;3.70;1.00;;;;;;6282741;22;20141;-82
2021/11/30 10:57:37;;;;;;;195.70;189.37;;;3.70;1.00;;;;;;6283016;22;20166;-80
2021/11/30 11:00:15;;;;;;;465.30;444.10;;;3.90;1.00;;;;;;6282804;22;20166;-82
2021/11/30 11:05:33;;;;;;;541.80;516.80;;;3.80;1.00;;;;;;6285160;22;20687;-81
2021/11/30 11:08:05;;;;;;;472.90;449.60;;;;;;;;;;6283527;22;20157;-80
2021/11/30 11:10:32;;;;;;;410.27;394.47;;;3.90;1.00;;;;;;6283368;22;20172;-81
2021/11/30 11:13:26;;;;;;;131.27;126.97;;;3.90;1.00;;;;;;6281083;22;20172;-81
2021/11/30 11:15:57;;;;;;;356.53;342.23;;;3.90;1.00;;;;;;6282644;22;20158;-80
2021/11/30 11:18:25;;;;;;;224.60;215.87;;;3.90;1.00;;;;;;6284494;22;20149;-81
2021/11/30 11:21:11;;;;;;;195.17;188.57;;;3.90;1.00;;;;;;6282387;22;20153;-79
2021/11/30 11:23:42;;;;;;;563.20;517.50;;;;;;;;;;6280240;22;20191;-80
2021/11/30 11:26:36;;;;;;;374.77;359.73;;;4.00;1.00;;;;;;6278705;22;20157;-79
2021/11/30 11:29:11;;;;;;;457.40;437.40;;;4.00;1.00;;;;;;6277871;22;20188;-80
2021/11/30 11:31:48;;;;;;;127.83;123.33;;;4.10;1.00;;;;;;6285018;22;20180;-80
2021/11/30 11:34:16;;;;;;;289.87;279.37;;;4.10;1.00;;;;;;6283331;22;20138;-80
2021/11/30 11:36:44;;;;;;;716.83;671.77;;;4.10;1.00;;;;;;6285205;22;20290;-80
2021/11/30 11:39:10;;;;;;;274.00;264.37;;;;;;;;;;6280176;22;20162;-79
2021/11/30 11:41:35;;;;;;;652.30;611.00;;;4.10;1.00;;;;;;6281290;22;20176;-80
2021/11/30 11:44:01;;;;;;;592.93;564.77;;;4.20;1.00;;;;;;6282054;22;20169;-79
2021/11/30 11:46:33;;;;;;;505.67;485.57;;;4.30;1.00;;;;;;6276494;22;20163;-79
2021/11/30 11:49:02;;;;;;;554.30;525.60;;;4.30;1.00;;;;;;6277208;22;20602;-79
2021/11/30 11:51:40;;;;;;;280.57;270.53;;;4.30;1.00;;;;;;6279325;22;20582;-80
2021/11/30 11:54:07;;;;;;;583.77;555.73;;;5.30;1.00;;;;;;6281747;22;20175;-78
2021/11/30 11:56:35;;;;;;;331.67;318.57;;;3.70;1.00;;;;;;6274587;22;20161;-77
2021/11/30 11:59:16;;;;;;;377.80;364.00;;;4.40;1.00;;;;;;6276118;22;20175;-77
2021/11/30 12:01:50;;;;;;;470.73;450.33;;;4.40;1.00;;;;;;6273398;22;20141;-77
2021/11/30 12:04:19;;;;;;;314.43;302.63;;;4.50;1.00;;;;;;6270497;22;20149;-77
2021/11/30 12:06:58;;;;;;;365.87;351.93;;;4.50;1.00;;;;;;6272828;22;20184;-76
2021/11/30 12:09:25;;;;;;;391.87;374.63;;;4.50;1.00;;;;;;6273661;22;20222;-77
2021/11/30 12:11:55;;;;;;;354.47;341.43;;;4.60;1.00;;;;;;6271562;22;20197;-77
2021/11/30 12:14:33;;;;;;;625.70;590.53;;;4.60;1.00;;;;;;6273732;22;20162;-77
2021/11/30 12:17:26;;;;;;;170.60;165.10;;;4.60;1.00;;;;;;6270860;22;20154;-77
2021/11/30 12:19:51;;;;;;;599.53;567.97;;;4.60;1.00;;;;;;6273316;22;20499;-77
2021/11/30 12:22:45;;;;;;;268.73;257.20;;;4.70;1.00;;;;;;6273566;22;20162;-77
2021/11/30 12:25:26;;;;;;;333.27;321.40;;;4.70;1.00;;;;;;6258569;22;20170;-77
2021/11/30 12:27:53;;;;;;;235.40;227.83;;;4.70;1.00;;;;;;6271105;22;20248;-77
2021/11/30 12:30:48;;;;;;;265.03;256.07;;;5.00;1.00;;;;;;6271922;22;20896;-77
2021/11/30 12:33:17;;;;;;;689.30;651.23;;;4.70;1.00;;;;;;6272845;22;20623;-77
2021/11/30 12:35:48;;;;;;;196.03;189.67;;;4.70;1.00;;;;;;6276898;22;20226;-78
2021/11/30 12:38:20;;;;;;;374.17;359.23;;;4.70;1.00;;;;;;6280725;22;20295;-78
2021/11/30 12:40:49;;;;;;;167.57;162.17;;;;;;;;;;6276528;22;20605;-78
2021/11/30 12:43:22;;;;;;;406.07;389.87;;;4.80;1.00;;;;;;6281268;22;20162;-78
2021/11/30 12:45:51;;;;;;;325.73;310.77;;;4.70;1.00;;;;;;6279639;22;20184;-78
2021/11/30 12:48:22;;;;;;;483.63;461.60;;;4.70;1.00;;;;;;6280955;22;20154;-79
2021/11/30 12:50:55;;;;;;;454.47;435.50;;;4.80;1.00;;;;;;6278038;22;20180;-78
2021/11/30 12:53:38;;;;;;;630.40;593.87;;;4.80;1.00;;;;;;6277121;22;20173;-78
2021/11/30 12:56:04;;;;;;;315.00;299.63;;;4.80;1.00;;;;;;6278069;22;20192;-78
2021/11/30 12:58:44;;;;;;;141.00;136.50;;;4.70;1.00;;;;;;6276607;22;20556;-77
2021/11/30 13:01:23;;;;;;;172.07;166.17;;;4.80;1.00;;;;;;6270522;22;20169;-77
2021/11/30 13:03:50;;;;;;;620.00;587.33;;;4.80;1.00;;;;;;6270318;22;20590;-77
2021/11/30 13:06:18;;;;;;;353.30;337.23;;;4.80;1.00;;;;;;6268991;22;20900;-77
2021/11/30 13:09:04;;;;;;;614.53;575.87;;;4.80;1.00;;;;;;6270958;22;20162;-77
2021/11/30 13:11:33;;;;;;;285.43;275.30;;;4.80;1.00;;;;;;6272280;22;20200;-77
2021/11/30 13:14:07;;;;;;;170.03;164.57;;;4.80;1.00;;;;;;6269969;22;20192;-77
2021/11/30 13:16:36;;;;;;;277.50;266.30;;;4.80;1.00;;;;;;6273558;22;20584;-77
2021/11/30 13:19:09;;;;;;;402.47;385.03;;;5.10;1.00;;;;;;6248330;22;20171;-78
2021/11/30 13:21:41;;;;;;;353.57;340.40;;;4.80;1.00;;;;;;6272983;22;21025;-77
2021/11/30 13:24:13;;;;;;;359.43;346.30;;;4.90;1.00;;;;;;6271420;22;20170;-77
2021/11/30 13:26:42;;;;;;;262.93;253.30;;;4.90;1.00;;;;;;6272520;22;20595;-77